sensor_id;sensor_type;location;lat;lon;timestamp;P1;durP1;ratioP1;P2;durP2;ratioP2
30408;SDS011;17207;52.960;5.916;2023-02-18T00:00:55;10.20;;;2.92;;
30408;SDS011;17207;52.960;5.916;2023-02-18T00:03:22;6.85;;;2.22;;
30408;SDS011;17207;52.960;5.916;2023-02-18T00:05:49;13.38;;;2.40;;
30408;SDS011;17207;52.960;5.916;2023-02-18T00:08:15;8.00;;;2.20;;
30408;SDS011;17207;52.960;5.916;2023-02-18T00:10:41;6.97;;;2.30;;
30408;SDS011;17207;52.960;5.916;2023-02-18T00:13:07;8.80;;;2.35;;
30408;SDS011;17207;52.960;5.916;2023-02-18T00:15:34;14.38;;;2.58;;
30408;SDS011;17207;52.960;5.916;2023-02-18T00:18:00;6.07;;;2.10;;
30408;SDS011;17207;52.960;5.916;2023-02-18T00:20:26;5.57;;;2.10;;
30408;SDS011;17207;52.960;5.916;2023-02-18T00:22:52;8.57;;;2.15;;
30408;SDS011;17207;52.960;5.916;2023-02-18T00:25:18;10.65;;;2.35;;
30408;SDS011;17207;52.960;5.916;2023-02-18T00:27:44;7.68;;;2.25;;
30408;SDS011;17207;52.960;5.916;2023-02-18T00:30:10;5.75;;;1.70;;
30408;SDS011;17207;52.960;5.916;2023-02-18T00:32:36;10.98;;;2.45;;
30408;SDS011;17207;52.960;5.916;2023-02-18T00:35:02;11.38;;;2.20;;
30408;SDS011;17207;52.960;5.916;2023-02-18T00:37:29;7.53;;;1.92;;
30408;SDS011;17207;52.960;5.916;2023-02-18T00:39:55;10.00;;;2.45;;
30408;SDS011;17207;52.960;5.916;2023-02-18T00:42:21;10.15;;;2.38;;
30408;SDS011;17207;52.960;5.916;2023-02-18T00:44:47;6.88;;;1.73;;
30408;SDS011;17207;52.960;5.916;2023-02-18T00:47:13;9.38;;;2.60;;
30408;SDS011;17207;52.960;5.916;2023-02-18T00:49:39;6.88;;;1.58;;
30408;SDS011;17207;52.960;5.916;2023-02-18T00:52:05;7.70;;;2.38;;
30408;SDS011;17207;52.960;5.916;2023-02-18T00:54:31;7.25;;;1.98;;
30408;SDS011;17207;52.960;5.916;2023-02-18T00:56:57;6.35;;;2.03;;
30408;SDS011;17207;52.960;5.916;2023-02-18T00:59:23;7.03;;;2.28;;
30408;SDS011;17207;52.960;5.916;2023-02-18T01:01:49;5.63;;;1.77;;
30408;SDS011;17207;52.960;5.916;2023-02-18T01:04:16;10.82;;;2.35;;
30408;SDS011;17207;52.960;5.916;2023-02-18T01:06:42;7.40;;;2.05;;
30408;SDS011;17207;52.960;5.916;2023-02-18T01:09:08;10.02;;;1.92;;
30408;SDS011;17207;52.960;5.916;2023-02-18T01:11:34;4.53;;;1.60;;
30408;SDS011;17207;52.960;5.916;2023-02-18T01:14:01;6.60;;;1.90;;
30408;SDS011;17207;52.960;5.916;2023-02-18T01:16:27;8.98;;;2.30;;
30408;SDS011;17207;52.960;5.916;2023-02-18T01:18:53;10.07;;;2.40;;
30408;SDS011;17207;52.960;5.916;2023-02-18T01:21:19;8.80;;;1.92;;
30408;SDS011;17207;52.960;5.916;2023-02-18T01:23:45;9.43;;;2.53;;
30408;SDS011;17207;52.960;5.916;2023-02-18T01:26:11;5.28;;;1.83;;
30408;SDS011;17207;52.960;5.916;2023-02-18T01:28:37;7.78;;;1.90;;
30408;SDS011;17207;52.960;5.916;2023-02-18T01:31:05;7.30;;;2.00;;
30408;SDS011;17207;52.960;5.916;2023-02-18T01:33:32;12.13;;;1.90;;
30408;SDS011;17207;52.960;5.916;2023-02-18T01:35:58;7.70;;;1.70;;
30408;SDS011;17207;52.960;5.916;2023-02-18T01:38:24;8.20;;;1.70;;
30408;SDS011;17207;52.960;5.916;2023-02-18T01:40:51;5.97;;;1.60;;
30408;SDS011;17207;52.960;5.916;2023-02-18T01:43:17;13.23;;;1.93;;
30408;SDS011;17207;52.960;5.916;2023-02-18T01:45:51;4.88;;;1.27;;
30408;SDS011;17207;52.960;5.916;2023-02-18T01:51:02;8.75;;;1.92;;
30408;SDS011;17207;52.960;5.916;2023-02-18T01:53:35;4.75;;;1.90;;
30408;SDS011;17207;52.960;5.916;2023-02-18T01:56:02;7.22;;;2.13;;
30408;SDS011;17207;52.960;5.916;2023-02-18T01:58:31;3.53;;;1.40;;
30408;SDS011;17207;52.960;5.916;2023-02-18T02:00:58;7.57;;;1.38;;
30408;SDS011;17207;52.960;5.916;2023-02-18T02:03:24;7.00;;;1.90;;
30408;SDS011;17207;52.960;5.916;2023-02-18T02:05:50;10.48;;;2.10;;
30408;SDS011;17207;52.960;5.916;2023-02-18T02:08:16;5.93;;;1.90;;
30408;SDS011;17207;52.960;5.916;2023-02-18T02:13:14;6.28;;;1.60;;
30408;SDS011;17207;52.960;5.916;2023-02-18T02:15:54;6.00;;;1.70;;
30408;SDS011;17207;52.960;5.916;2023-02-18T02:23:39;5.20;;;1.45;;
30408;SDS011;17207;52.960;5.916;2023-02-18T02:46:43;5.72;;;1.80;;
30408;SDS011;17207;52.960;5.916;2023-02-18T02:51:45;3.72;;;1.60;;
30408;SDS011;17207;52.960;5.916;2023-02-18T02:56:38;8.13;;;1.80;;
30408;SDS011;17207;52.960;5.916;2023-02-18T02:59:07;3.80;;;1.23;;
30408;SDS011;17207;52.960;5.916;2023-02-18T03:11:44;4.25;;;1.95;;
30408;SDS011;17207;52.960;5.916;2023-02-18T03:14:58;5.80;;;1.55;;
30408;SDS011;17207;52.960;5.916;2023-02-18T03:17:07;3.15;;;1.42;;
30408;SDS011;17207;52.960;5.916;2023-02-18T03:19:41;3.45;;;1.65;;
30408;SDS011;17207;52.960;5.916;2023-02-18T03:24:41;4.78;;;1.20;;
30408;SDS011;17207;52.960;5.916;2023-02-18T03:27:08;7.55;;;1.70;;
30408;SDS011;17207;52.960;5.916;2023-02-18T03:29:36;6.82;;;1.42;;
30408;SDS011;17207;52.960;5.916;2023-02-18T03:32:04;4.50;;;1.52;;
30408;SDS011;17207;52.960;5.916;2023-02-18T03:34:33;3.53;;;1.50;;
30408;SDS011;17207;52.960;5.916;2023-02-18T03:37:00;7.68;;;1.73;;
30408;SDS011;17207;52.960;5.916;2023-02-18T03:39:28;4.57;;;1.70;;
30408;SDS011;17207;52.960;5.916;2023-02-18T03:41:54;5.90;;;1.80;;
30408;SDS011;17207;52.960;5.916;2023-02-18T03:44:20;7.25;;;1.95;;
30408;SDS011;17207;52.960;5.916;2023-02-18T03:46:48;5.63;;;1.52;;
30408;SDS011;17207;52.960;5.916;2023-02-18T03:49:14;5.78;;;1.60;;
30408;SDS011;17207;52.960;5.916;2023-02-18T03:51:41;4.07;;;1.30;;
30408;SDS011;17207;52.960;5.916;2023-02-18T03:54:07;4.57;;;1.63;;
30408;SDS011;17207;52.960;5.916;2023-02-18T03:56:34;7.07;;;1.95;;
30408;SDS011;17207;52.960;5.916;2023-02-18T03:59:00;4.65;;;1.40;;
30408;SDS011;17207;52.960;5.916;2023-02-18T04:01:26;6.75;;;1.95;;
30408;SDS011;17207;52.960;5.916;2023-02-18T04:03:52;4.07;;;1.48;;
30408;SDS011;17207;52.960;5.916;2023-02-18T04:06:20;3.40;;;1.90;;
30408;SDS011;17207;52.960;5.916;2023-02-18T04:08:46;6.35;;;1.60;;
30408;SDS011;17207;52.960;5.916;2023-02-18T04:11:12;8.05;;;1.98;;
30408;SDS011;17207;52.960;5.916;2023-02-18T04:13:38;4.25;;;1.70;;
30408;SDS011;17207;52.960;5.916;2023-02-18T04:16:04;3.95;;;1.60;;
30408;SDS011;17207;52.960;5.916;2023-02-18T04:18:30;5.07;;;1.75;;
30408;SDS011;17207;52.960;5.916;2023-02-18T04:20:56;6.70;;;2.30;;
30408;SDS011;17207;52.960;5.916;2023-02-18T04:23:22;5.00;;;1.50;;
30408;SDS011;17207;52.960;5.916;2023-02-18T04:25:48;4.82;;;1.83;;
30408;SDS011;17207;52.960;5.916;2023-02-18T04:28:15;4.03;;;1.45;;
30408;SDS011;17207;52.960;5.916;2023-02-18T04:30:45;5.40;;;2.13;;
30408;SDS011;17207;52.960;5.916;2023-02-18T04:33:11;10.85;;;2.50;;
30408;SDS011;17207;52.960;5.916;2023-02-18T04:35:37;5.32;;;1.73;;
30408;SDS011;17207;52.960;5.916;2023-02-18T04:38:07;8.23;;;1.98;;
30408;SDS011;17207;52.960;5.916;2023-02-18T04:40:33;4.68;;;1.85;;
30408;SDS011;17207;52.960;5.916;2023-02-18T04:42:59;5.53;;;1.92;;
30408;SDS011;17207;52.960;5.916;2023-02-18T04:45:26;7.70;;;2.25;;
30408;SDS011;17207;52.960;5.916;2023-02-18T04:47:52;6.80;;;1.85;;
30408;SDS011;17207;52.960;5.916;2023-02-18T04:50:19;6.68;;;2.03;;
30408;SDS011;17207;52.960;5.916;2023-02-18T04:52:45;7.32;;;2.63;;
30408;SDS011;17207;52.960;5.916;2023-02-18T04:55:11;4.93;;;1.67;;
30408;SDS011;17207;52.960;5.916;2023-02-18T04:57:37;6.47;;;2.45;;
30408;SDS011;17207;52.960;5.916;2023-02-18T05:00:04;8.82;;;2.75;;
30408;SDS011;17207;52.960;5.916;2023-02-18T05:02:31;5.70;;;2.27;;
30408;SDS011;17207;52.960;5.916;2023-02-18T05:04:57;4.25;;;1.90;;
30408;SDS011;17207;52.960;5.916;2023-02-18T05:07:23;4.95;;;2.33;;
30408;SDS011;17207;52.960;5.916;2023-02-18T05:09:49;6.75;;;2.38;;
30408;SDS011;17207;52.960;5.916;2023-02-18T05:12:16;7.85;;;2.97;;
30408;SDS011;17207;52.960;5.916;2023-02-18T05:14:42;7.18;;;2.33;;
30408;SDS011;17207;52.960;5.916;2023-02-18T05:17:08;6.30;;;2.45;;
30408;SDS011;17207;52.960;5.916;2023-02-18T05:19:34;10.48;;;2.53;;
30408;SDS011;17207;52.960;5.916;2023-02-18T05:22:00;9.23;;;2.83;;
30408;SDS011;17207;52.960;5.916;2023-02-18T05:24:26;8.30;;;3.15;;
30408;SDS011;17207;52.960;5.916;2023-02-18T05:26:52;4.50;;;2.67;;
30408;SDS011;17207;52.960;5.916;2023-02-18T05:29:18;7.40;;;2.63;;
30408;SDS011;17207;52.960;5.916;2023-02-18T05:31:44;8.80;;;2.35;;
30408;SDS011;17207;52.960;5.916;2023-02-18T05:34:10;10.55;;;2.83;;
30408;SDS011;17207;52.960;5.916;2023-02-18T05:36:36;4.35;;;2.33;;
30408;SDS011;17207;52.960;5.916;2023-02-18T05:39:02;7.28;;;2.47;;
30408;SDS011;17207;52.960;5.916;2023-02-18T05:41:28;5.50;;;2.17;;
30408;SDS011;17207;52.960;5.916;2023-02-18T05:43:54;5.15;;;2.75;;
30408;SDS011;17207;52.960;5.916;2023-02-18T05:46:39;5.68;;;2.58;;
30408;SDS011;17207;52.960;5.916;2023-02-18T05:49:05;6.20;;;2.25;;
30408;SDS011;17207;52.960;5.916;2023-02-18T05:51:31;6.60;;;2.90;;
30408;SDS011;17207;52.960;5.916;2023-02-18T05:53:57;6.10;;;2.38;;
30408;SDS011;17207;52.960;5.916;2023-02-18T05:56:23;3.70;;;2.15;;
30408;SDS011;17207;52.960;5.916;2023-02-18T05:58:49;6.03;;;2.42;;
30408;SDS011;17207;52.960;5.916;2023-02-18T06:01:15;4.05;;;2.08;;
30408;SDS011;17207;52.960;5.916;2023-02-18T06:03:41;7.20;;;2.78;;
30408;SDS011;17207;52.960;5.916;2023-02-18T06:06:07;5.13;;;2.40;;
30408;SDS011;17207;52.960;5.916;2023-02-18T06:08:33;3.20;;;1.88;;
30408;SDS011;17207;52.960;5.916;2023-02-18T06:10:59;8.88;;;2.10;;
30408;SDS011;17207;52.960;5.916;2023-02-18T06:13:25;6.30;;;2.67;;
30408;SDS011;17207;52.960;5.916;2023-02-18T06:15:51;4.97;;;2.53;;
30408;SDS011;17207;52.960;5.916;2023-02-18T06:18:18;5.72;;;2.05;;
30408;SDS011;17207;52.960;5.916;2023-02-18T06:20:48;7.00;;;2.58;;
30408;SDS011;17207;52.960;5.916;2023-02-18T06:23:14;5.15;;;2.60;;
30408;SDS011;17207;52.960;5.916;2023-02-18T06:25:40;5.03;;;2.30;;
30408;SDS011;17207;52.960;5.916;2023-02-18T06:28:07;3.58;;;1.75;;
30408;SDS011;17207;52.960;5.916;2023-02-18T06:30:33;4.50;;;2.28;;
30408;SDS011;17207;52.960;5.916;2023-02-18T06:32:59;3.85;;;2.00;;
30408;SDS011;17207;52.960;5.916;2023-02-18T06:35:28;5.53;;;2.05;;
30408;SDS011;17207;52.960;5.916;2023-02-18T06:37:54;2.95;;;1.77;;
30408;SDS011;17207;52.960;5.916;2023-02-18T06:40:20;5.07;;;1.90;;
30408;SDS011;17207;52.960;5.916;2023-02-18T06:42:46;4.10;;;1.95;;
30408;SDS011;17207;52.960;5.916;2023-02-18T06:45:12;3.13;;;1.95;;
30408;SDS011;17207;52.960;5.916;2023-02-18T06:47:38;4.75;;;1.75;;
30408;SDS011;17207;52.960;5.916;2023-02-18T06:50:04;10.00;;;2.03;;
30408;SDS011;17207;52.960;5.916;2023-02-18T06:52:30;5.40;;;1.85;;
30408;SDS011;17207;52.960;5.916;2023-02-18T06:54:58;5.60;;;2.05;;
30408;SDS011;17207;52.960;5.916;2023-02-18T06:57:24;5.32;;;1.73;;
30408;SDS011;17207;52.960;5.916;2023-02-18T06:59:50;7.82;;;2.42;;
30408;SDS011;17207;52.960;5.916;2023-02-18T07:02:16;10.65;;;1.98;;
30408;SDS011;17207;52.960;5.916;2023-02-18T07:04:42;8.27;;;2.20;;
30408;SDS011;17207;52.960;5.916;2023-02-18T07:07:10;2.88;;;1.65;;
30408;SDS011;17207;52.960;5.916;2023-02-18T07:09:36;6.45;;;1.70;;
30408;SDS011;17207;52.960;5.916;2023-02-18T07:12:02;5.18;;;2.03;;
30408;SDS011;17207;52.960;5.916;2023-02-18T07:14:28;5.70;;;1.77;;
30408;SDS011;17207;52.960;5.916;2023-02-18T07:16:54;5.57;;;1.55;;
30408;SDS011;17207;52.960;5.916;2023-02-18T07:19:20;4.05;;;1.45;;
30408;SDS011;17207;52.960;5.916;2023-02-18T07:21:46;4.88;;;1.70;;
30408;SDS011;17207;52.960;5.916;2023-02-18T07:24:12;5.72;;;1.95;;
30408;SDS011;17207;52.960;5.916;2023-02-18T07:26:38;6.38;;;1.60;;
30408;SDS011;17207;52.960;5.916;2023-02-18T07:29:04;5.30;;;2.00;;
30408;SDS011;17207;52.960;5.916;2023-02-18T07:31:30;4.40;;;1.67;;
30408;SDS011;17207;52.960;5.916;2023-02-18T07:33:56;3.03;;;1.45;;
30408;SDS011;17207;52.960;5.916;2023-02-18T07:36:22;3.13;;;1.63;;
30408;SDS011;17207;52.960;5.916;2023-02-18T07:38:48;2.67;;;1.63;;
30408;SDS011;17207;52.960;5.916;2023-02-18T07:41:18;6.38;;;1.25;;
30408;SDS011;17207;52.960;5.916;2023-02-18T07:43:45;5.18;;;1.95;;
30408;SDS011;17207;52.960;5.916;2023-02-18T07:46:11;6.30;;;1.63;;
30408;SDS011;17207;52.960;5.916;2023-02-18T07:48:37;3.03;;;1.15;;
30408;SDS011;17207;52.960;5.916;2023-02-18T07:51:07;2.75;;;1.35;;
30408;SDS011;17207;52.960;5.916;2023-02-18T07:53:34;4.43;;;1.45;;
30408;SDS011;17207;52.960;5.916;2023-02-18T07:56:00;3.13;;;1.33;;
30408;SDS011;17207;52.960;5.916;2023-02-18T07:58:28;1.85;;;1.08;;
30408;SDS011;17207;52.960;5.916;2023-02-18T08:00:54;3.95;;;1.48;;
30408;SDS011;17207;52.960;5.916;2023-02-18T08:03:22;2.30;;;1.10;;
30408;SDS011;17207;52.960;5.916;2023-02-18T08:05:48;5.53;;;1.23;;
30408;SDS011;17207;52.960;5.916;2023-02-18T08:08:15;2.85;;;1.38;;
30408;SDS011;17207;52.960;5.916;2023-02-18T08:10:42;4.03;;;1.40;;
30408;SDS011;17207;52.960;5.916;2023-02-18T08:13:08;5.53;;;1.52;;
30408;SDS011;17207;52.960;5.916;2023-02-18T08:15:34;6.10;;;1.30;;
30408;SDS011;17207;52.960;5.916;2023-02-18T08:18:00;1.27;;;1.00;;
30408;SDS011;17207;52.960;5.916;2023-02-18T08:20:27;4.60;;;1.50;;
30408;SDS011;17207;52.960;5.916;2023-02-18T08:22:53;7.05;;;1.60;;
30408;SDS011;17207;52.960;5.916;2023-02-18T08:25:19;2.72;;;1.33;;
30408;SDS011;17207;52.960;5.916;2023-02-18T08:27:45;2.33;;;1.00;;
30408;SDS011;17207;52.960;5.916;2023-02-18T08:30:12;4.53;;;1.40;;
30408;SDS011;17207;52.960;5.916;2023-02-18T08:32:38;2.85;;;1.20;;
30408;SDS011;17207;52.960;5.916;2023-02-18T08:35:04;2.13;;;1.50;;
30408;SDS011;17207;52.960;5.916;2023-02-18T08:37:31;4.00;;;1.10;;
30408;SDS011;17207;52.960;5.916;2023-02-18T08:39:57;3.92;;;1.17;;
30408;SDS011;17207;52.960;5.916;2023-02-18T08:42:23;6.55;;;1.13;;
30408;SDS011;17207;52.960;5.916;2023-02-18T08:44:49;3.60;;;1.05;;
30408;SDS011;17207;52.960;5.916;2023-02-18T08:47:15;6.70;;;1.60;;
30408;SDS011;17207;52.960;5.916;2023-02-18T08:49:41;4.82;;;0.90;;
30408;SDS011;17207;52.960;5.916;2023-02-18T08:52:07;2.35;;;1.40;;
30408;SDS011;17207;52.960;5.916;2023-02-18T08:54:34;5.78;;;1.10;;
30408;SDS011;17207;52.960;5.916;2023-02-18T08:57:00;4.88;;;0.95;;
30408;SDS011;17207;52.960;5.916;2023-02-18T08:59:26;2.90;;;1.20;;
30408;SDS011;17207;52.960;5.916;2023-02-18T09:01:52;2.78;;;1.30;;
30408;SDS011;17207;52.960;5.916;2023-02-18T09:04:18;2.45;;;1.23;;
30408;SDS011;17207;52.960;5.916;2023-02-18T09:06:45;3.30;;;1.30;;
30408;SDS011;17207;52.960;5.916;2023-02-18T09:09:12;5.28;;;0.95;;
30408;SDS011;17207;52.960;5.916;2023-02-18T09:11:38;4.15;;;1.50;;
30408;SDS011;17207;52.960;5.916;2023-02-18T09:14:04;4.07;;;1.30;;
30408;SDS011;17207;52.960;5.916;2023-02-18T09:16:30;4.78;;;1.05;;
30408;SDS011;17207;52.960;5.916;2023-02-18T09:18:56;3.63;;;1.20;;
30408;SDS011;17207;52.960;5.916;2023-02-18T09:21:23;4.18;;;1.00;;
30408;SDS011;17207;52.960;5.916;2023-02-18T09:23:50;4.43;;;0.90;;
30408;SDS011;17207;52.960;5.916;2023-02-18T09:26:16;2.33;;;1.10;;
30408;SDS011;17207;52.960;5.916;2023-02-18T09:28:45;2.78;;;0.80;;
30408;SDS011;17207;52.960;5.916;2023-02-18T09:33:41;3.90;;;1.00;;
30408;SDS011;17207;52.960;5.916;2023-02-18T09:36:08;3.47;;;0.93;;
30408;SDS011;17207;52.960;5.916;2023-02-18T09:38:34;3.60;;;0.95;;
30408;SDS011;17207;52.960;5.916;2023-02-18T09:41:00;4.60;;;1.05;;
30408;SDS011;17207;52.960;5.916;2023-02-18T09:45:56;2.22;;;1.00;;
30408;SDS011;17207;52.960;5.916;2023-02-18T09:48:27;4.18;;;1.13;;
30408;SDS011;17207;52.960;5.916;2023-02-18T09:50:53;3.47;;;1.10;;
30408;SDS011;17207;52.960;5.916;2023-02-18T09:53:20;2.67;;;0.80;;
30408;SDS011;17207;52.960;5.916;2023-02-18T09:55:46;2.45;;;0.82;;
30408;SDS011;17207;52.960;5.916;2023-02-18T09:58:22;5.97;;;1.17;;
30408;SDS011;17207;52.960;5.916;2023-02-18T10:00:51;4.23;;;1.20;;
30408;SDS011;17207;52.960;5.916;2023-02-18T10:05:57;9.45;;;0.82;;
30408;SDS011;17207;52.960;5.916;2023-02-18T10:08:27;4.43;;;1.17;;
30408;SDS011;17207;52.960;5.916;2023-02-18T10:10:54;2.45;;;0.80;;
30408;SDS011;17207;52.960;5.916;2023-02-18T10:13:21;5.13;;;0.90;;
30408;SDS011;17207;52.960;5.916;2023-02-18T10:15:48;3.17;;;0.90;;
30408;SDS011;17207;52.960;5.916;2023-02-18T10:18:23;4.93;;;1.02;;
30408;SDS011;17207;52.960;5.916;2023-02-18T10:20:51;2.88;;;1.10;;
30408;SDS011;17207;52.960;5.916;2023-02-18T10:23:18;9.02;;;1.00;;
30408;SDS011;17207;52.960;5.916;2023-02-18T10:25:44;3.13;;;0.75;;
30408;SDS011;17207;52.960;5.916;2023-02-18T10:28:11;3.90;;;0.98;;
30408;SDS011;17207;52.960;5.916;2023-02-18T10:30:49;4.03;;;0.95;;
30408;SDS011;17207;52.960;5.916;2023-02-18T10:35:54;4.65;;;1.10;;
30408;SDS011;17207;52.960;5.916;2023-02-18T10:38:32;3.90;;;0.98;;
30408;SDS011;17207;52.960;5.916;2023-02-18T10:46:25;5.25;;;0.90;;
30408;SDS011;17207;52.960;5.916;2023-02-18T10:49:14;6.57;;;1.20;;
30408;SDS011;17207;52.960;5.916;2023-02-18T10:51:46;2.20;;;0.90;;
30408;SDS011;17207;52.960;5.916;2023-02-18T10:54:13;3.00;;;1.00;;
30408;SDS011;17207;52.960;5.916;2023-02-18T10:59:14;1.83;;;0.73;;
30408;SDS011;17207;52.960;5.916;2023-02-18T11:01:43;3.85;;;0.95;;
30408;SDS011;17207;52.960;5.916;2023-02-18T11:04:17;4.60;;;1.25;;
30408;SDS011;17207;52.960;5.916;2023-02-18T11:06:44;3.35;;;0.82;;
30408;SDS011;17207;52.960;5.916;2023-02-18T11:09:22;4.45;;;1.13;;
30408;SDS011;17207;52.960;5.916;2023-02-18T11:11:49;2.63;;;1.00;;
30408;SDS011;17207;52.960;5.916;2023-02-18T11:14:20;4.93;;;1.20;;
30408;SDS011;17207;52.960;5.916;2023-02-18T11:17:06;2.22;;;0.77;;
30408;SDS011;17207;52.960;5.916;2023-02-18T11:19:34;1.42;;;0.55;;
30408;SDS011;17207;52.960;5.916;2023-02-18T11:24:46;3.80;;;1.20;;
30408;SDS011;17207;52.960;5.916;2023-02-18T11:27:58;2.45;;;1.27;;
30408;SDS011;17207;52.960;5.916;2023-02-18T11:30:03;3.67;;;0.80;;
30408;SDS011;17207;52.960;5.916;2023-02-18T11:32:33;4.47;;;1.30;;
30408;SDS011;17207;52.960;5.916;2023-02-18T11:37:25;5.57;;;1.55;;
30408;SDS011;17207;52.960;5.916;2023-02-18T11:39:52;2.92;;;0.95;;
30408;SDS011;17207;52.960;5.916;2023-02-18T11:42:20;4.38;;;0.93;;
30408;SDS011;17207;52.960;5.916;2023-02-18T11:44:56;4.32;;;1.00;;
30408;SDS011;17207;52.960;5.916;2023-02-18T11:47:27;4.88;;;0.95;;
30408;SDS011;17207;52.960;5.916;2023-02-18T11:50:00;3.85;;;0.90;;
30408;SDS011;17207;52.960;5.916;2023-02-18T11:52:37;4.53;;;1.10;;
30408;SDS011;17207;52.960;5.916;2023-02-18T11:55:06;1.73;;;0.77;;
30408;SDS011;17207;52.960;5.916;2023-02-18T11:57:33;1.70;;;0.75;;
30408;SDS011;17207;52.960;5.916;2023-02-18T11:59:59;2.33;;;0.98;;
30408;SDS011;17207;52.960;5.916;2023-02-18T12:05:00;6.32;;;1.08;;
30408;SDS011;17207;52.960;5.916;2023-02-18T12:07:29;4.72;;;1.13;;
30408;SDS011;17207;52.960;5.916;2023-02-18T12:09:58;3.33;;;0.90;;
30408;SDS011;17207;52.960;5.916;2023-02-18T12:14:52;6.50;;;1.00;;
30408;SDS011;17207;52.960;5.916;2023-02-18T12:22:52;2.42;;;0.90;;
30408;SDS011;17207;52.960;5.916;2023-02-18T12:25:27;3.03;;;0.80;;
30408;SDS011;17207;52.960;5.916;2023-02-18T12:30:31;5.05;;;0.90;;
30408;SDS011;17207;52.960;5.916;2023-02-18T12:48:48;5.00;;;1.25;;
30408;SDS011;17207;52.960;5.916;2023-02-18T13:14:26;2.70;;;1.10;;
30408;SDS011;17207;52.960;5.916;2023-02-18T13:16:55;3.95;;;1.23;;
30408;SDS011;17207;52.960;5.916;2023-02-18T13:19:26;3.65;;;1.10;;
30408;SDS011;17207;52.960;5.916;2023-02-18T13:22:03;5.90;;;1.05;;
30408;SDS011;17207;52.960;5.916;2023-02-18T13:24:33;2.97;;;0.90;;
30408;SDS011;17207;52.960;5.916;2023-02-18T13:29:33;1.92;;;0.77;;
30408;SDS011;17207;52.960;5.916;2023-02-18T13:39:46;4.05;;;0.93;;
30408;SDS011;17207;52.960;5.916;2023-02-18T13:52:47;2.88;;;1.00;;
30408;SDS011;17207;52.960;5.916;2023-02-18T13:55:16;4.93;;;1.00;;
30408;SDS011;17207;52.960;5.916;2023-02-18T13:57:44;3.92;;;0.73;;
30408;SDS011;17207;52.960;5.916;2023-02-18T14:02:37;3.13;;;0.98;;
30408;SDS011;17207;52.960;5.916;2023-02-18T14:05:20;4.40;;;1.10;;
30408;SDS011;17207;52.960;5.916;2023-02-18T14:10:35;8.15;;;1.10;;
30408;SDS011;17207;52.960;5.916;2023-02-18T14:13:17;2.13;;;1.00;;
30408;SDS011;17207;52.960;5.916;2023-02-18T14:15:51;2.58;;;1.02;;
30408;SDS011;17207;52.960;5.916;2023-02-18T14:20:50;7.85;;;1.15;;
30408;SDS011;17207;52.960;5.916;2023-02-18T14:30:55;2.47;;;0.90;;
30408;SDS011;17207;52.960;5.916;2023-02-18T14:33:22;6.57;;;1.10;;
30408;SDS011;17207;52.960;5.916;2023-02-18T14:35:55;5.55;;;1.33;;
30408;SDS011;17207;52.960;5.916;2023-02-18T14:38:26;2.63;;;1.08;;
30408;SDS011;17207;52.960;5.916;2023-02-18T14:51:41;6.30;;;1.17;;
30408;SDS011;17207;52.960;5.916;2023-02-18T14:54:12;5.93;;;1.45;;
30408;SDS011;17207;52.960;5.916;2023-02-18T14:56:44;1.65;;;0.70;;
30408;SDS011;17207;52.960;5.916;2023-02-18T14:59:13;6.43;;;1.15;;
30408;SDS011;17207;52.960;5.916;2023-02-18T15:01:40;4.38;;;0.98;;
30408;SDS011;17207;52.960;5.916;2023-02-18T15:04:06;4.40;;;1.27;;
30408;SDS011;17207;52.960;5.916;2023-02-18T15:09:02;4.38;;;0.95;;
30408;SDS011;17207;52.960;5.916;2023-02-18T15:11:44;8.18;;;0.85;;
30408;SDS011;17207;52.960;5.916;2023-02-18T15:14:22;5.75;;;0.85;;
30408;SDS011;17207;52.960;5.916;2023-02-18T15:16:49;8.75;;;1.17;;
30408;SDS011;17207;52.960;5.916;2023-02-18T15:19:17;3.45;;;1.13;;
30408;SDS011;17207;52.960;5.916;2023-02-18T15:21:45;4.70;;;0.90;;
30408;SDS011;17207;52.960;5.916;2023-02-18T15:26:42;7.72;;;1.10;;
30408;SDS011;17207;52.960;5.916;2023-02-18T15:29:18;2.75;;;0.70;;
30408;SDS011;17207;52.960;5.916;2023-02-18T15:31:44;2.63;;;0.68;;
30408;SDS011;17207;52.960;5.916;2023-02-18T15:34:23;8.65;;;1.20;;
30408;SDS011;17207;52.960;5.916;2023-02-18T15:36:51;2.13;;;0.73;;
30408;SDS011;17207;52.960;5.916;2023-02-18T15:39:18;6.07;;;1.10;;
30408;SDS011;17207;52.960;5.916;2023-02-18T15:41:44;6.07;;;1.23;;
30408;SDS011;17207;52.960;5.916;2023-02-18T15:44:20;3.33;;;0.82;;
30408;SDS011;17207;52.960;5.916;2023-02-18T15:46:47;9.38;;;1.83;;
30408;SDS011;17207;52.960;5.916;2023-02-18T15:49:14;3.38;;;1.30;;
30408;SDS011;17207;52.960;5.916;2023-02-18T15:51:40;6.30;;;1.00;;
30408;SDS011;17207;52.960;5.916;2023-02-18T15:54:11;4.97;;;1.10;;
30408;SDS011;17207;52.960;5.916;2023-02-18T15:56:41;3.50;;;1.10;;
30408;SDS011;17207;52.960;5.916;2023-02-18T16:01:34;10.07;;;1.10;;
30408;SDS011;17207;52.960;5.916;2023-02-18T16:04:01;5.22;;;0.85;;
30408;SDS011;17207;52.960;5.916;2023-02-18T16:06:30;5.25;;;0.95;;
30408;SDS011;17207;52.960;5.916;2023-02-18T16:09:06;2.97;;;1.20;;
30408;SDS011;17207;52.960;5.916;2023-02-18T16:11:38;4.80;;;1.13;;
30408;SDS011;17207;52.960;5.916;2023-02-18T16:14:05;3.97;;;0.80;;
30408;SDS011;17207;52.960;5.916;2023-02-18T16:16:32;4.05;;;1.02;;
30408;SDS011;17207;52.960;5.916;2023-02-18T16:24:02;5.82;;;1.20;;
30408;SDS011;17207;52.960;5.916;2023-02-18T16:26:30;1.80;;;0.70;;
30408;SDS011;17207;52.960;5.916;2023-02-18T16:31:45;5.22;;;0.95;;
30408;SDS011;17207;52.960;5.916;2023-02-18T16:34:12;5.22;;;0.90;;
30408;SDS011;17207;52.960;5.916;2023-02-18T16:36:38;7.65;;;0.75;;
30408;SDS011;17207;52.960;5.916;2023-02-18T16:39:32;3.50;;;0.90;;
30408;SDS011;17207;52.960;5.916;2023-02-18T16:41:58;3.45;;;1.05;;
30408;SDS011;17207;52.960;5.916;2023-02-18T16:44:24;3.95;;;1.10;;
30408;SDS011;17207;52.960;5.916;2023-02-18T16:46:51;3.60;;;1.00;;
30408;SDS011;17207;52.960;5.916;2023-02-18T16:49:17;5.03;;;1.10;;
30408;SDS011;17207;52.960;5.916;2023-02-18T16:51:44;2.70;;;0.70;;
30408;SDS011;17207;52.960;5.916;2023-02-18T16:54:10;5.03;;;1.08;;
30408;SDS011;17207;52.960;5.916;2023-02-18T16:56:37;4.43;;;0.95;;
30408;SDS011;17207;52.960;5.916;2023-02-18T16:59:03;3.97;;;1.50;;
30408;SDS011;17207;52.960;5.916;2023-02-18T17:01:33;5.05;;;0.90;;
30408;SDS011;17207;52.960;5.916;2023-02-18T17:04:02;3.83;;;1.10;;
30408;SDS011;17207;52.960;5.916;2023-02-18T17:06:29;10.07;;;1.48;;
30408;SDS011;17207;52.960;5.916;2023-02-18T17:08:56;7.15;;;1.48;;
30408;SDS011;17207;52.960;5.916;2023-02-18T17:11:27;7.03;;;1.77;;
30408;SDS011;17207;52.960;5.916;2023-02-18T17:13:53;18.05;;;2.88;;
30408;SDS011;17207;52.960;5.916;2023-02-18T17:16:22;23.00;;;3.55;;
30408;SDS011;17207;52.960;5.916;2023-02-18T17:18:48;15.98;;;3.22;;
30408;SDS011;17207;52.960;5.916;2023-02-18T17:21:16;16.38;;;2.90;;
30408;SDS011;17207;52.960;5.916;2023-02-18T17:23:42;12.77;;;2.75;;
30408;SDS011;17207;52.960;5.916;2023-02-18T17:26:13;26.55;;;3.85;;
30408;SDS011;17207;52.960;5.916;2023-02-18T17:28:40;36.15;;;4.93;;
30408;SDS011;17207;52.960;5.916;2023-02-18T17:31:07;38.92;;;5.47;;
30408;SDS011;17207;52.960;5.916;2023-02-18T17:33:36;38.30;;;5.55;;
30408;SDS011;17207;52.960;5.916;2023-02-18T17:36:03;15.73;;;3.72;;
30408;SDS011;17207;52.960;5.916;2023-02-18T17:38:29;35.63;;;5.40;;
30408;SDS011;17207;52.960;5.916;2023-02-18T17:40:57;30.75;;;4.43;;
30408;SDS011;17207;52.960;5.916;2023-02-18T17:43:23;40.47;;;4.43;;
30408;SDS011;17207;52.960;5.916;2023-02-18T17:45:51;30.15;;;4.85;;
30408;SDS011;17207;52.960;5.916;2023-02-18T17:48:17;30.48;;;4.10;;
30408;SDS011;17207;52.960;5.916;2023-02-18T17:50:43;33.30;;;4.93;;
30408;SDS011;17207;52.960;5.916;2023-02-18T17:53:10;30.52;;;4.30;;
30408;SDS011;17207;52.960;5.916;2023-02-18T17:55:36;28.33;;;4.17;;